sensor_id;sensor_type;location;lat;lon;timestamp;P1;durP1;ratioP1;P2;durP2;ratioP2
55290;SDS011;41155;39.768;2.712;2023-03-01T00:01:32;43.72;;;16.05;;
55290;SDS011;41155;39.768;2.712;2023-03-01T00:03:58;49.00;;;18.55;;
55290;SDS011;41155;39.768;2.712;2023-03-01T00:06:24;40.63;;;16.45;;
55290;SDS011;41155;39.768;2.712;2023-03-01T00:08:50;50.10;;;18.73;;
55290;SDS011;41155;39.768;2.712;2023-03-01T00:11:17;55.10;;;15.63;;
55290;SDS011;41155;39.768;2.712;2023-03-01T00:13:48;49.55;;;19.17;;
55290;SDS011;41155;39.768;2.712;2023-03-01T00:16:17;59.83;;;22.60;;
55290;SDS011;41155;39.768;2.712;2023-03-01T00:18:45;55.97;;;22.10;;
55290;SDS011;41155;39.768;2.712;2023-03-01T00:21:10;38.92;;;16.90;;
55290;SDS011;41155;39.768;2.712;2023-03-01T00:23:37;34.53;;;13.52;;
55290;SDS011;41155;39.768;2.712;2023-03-01T00:26:05;37.75;;;13.75;;
55290;SDS011;41155;39.768;2.712;2023-03-01T00:28:32;42.00;;;14.27;;
55290;SDS011;41155;39.768;2.712;2023-03-01T00:31:20;38.85;;;13.88;;
55290;SDS011;41155;39.768;2.712;2023-03-01T00:33:45;36.63;;;14.00;;
55290;SDS011;41155;39.768;2.712;2023-03-01T00:36:14;31.02;;;12.70;;
55290;SDS011;41155;39.768;2.712;2023-03-01T00:38:42;39.83;;;15.18;;
55290;SDS011;41155;39.768;2.712;2023-03-01T00:41:10;51.45;;;16.20;;
55290;SDS011;41155;39.768;2.712;2023-03-01T00:43:37;38.70;;;16.98;;
55290;SDS011;41155;39.768;2.712;2023-03-01T00:46:03;45.08;;;15.23;;
55290;SDS011;41155;39.768;2.712;2023-03-01T00:48:31;36.50;;;14.75;;
55290;SDS011;41155;39.768;2.712;2023-03-01T00:51:03;30.17;;;13.05;;
55290;SDS011;41155;39.768;2.712;2023-03-01T00:53:30;37.43;;;12.63;;
55290;SDS011;41155;39.768;2.712;2023-03-01T00:55:56;40.78;;;16.02;;
55290;SDS011;41155;39.768;2.712;2023-03-01T00:58:23;46.97;;;16.50;;
55290;SDS011;41155;39.768;2.712;2023-03-01T01:00:48;36.97;;;14.52;;
55290;SDS011;41155;39.768;2.712;2023-03-01T01:03:14;36.53;;;14.38;;
55290;SDS011;41155;39.768;2.712;2023-03-01T01:05:39;41.22;;;12.65;;
55290;SDS011;41155;39.768;2.712;2023-03-01T01:08:04;37.13;;;13.80;;
55290;SDS011;41155;39.768;2.712;2023-03-01T01:10:30;33.70;;;12.55;;
55290;SDS011;41155;39.768;2.712;2023-03-01T01:12:59;40.40;;;14.82;;
55290;SDS011;41155;39.768;2.712;2023-03-01T01:15:24;50.25;;;13.98;;
55290;SDS011;41155;39.768;2.712;2023-03-01T01:17:50;59.45;;;16.52;;
55290;SDS011;41155;39.768;2.712;2023-03-01T01:20:15;38.70;;;14.75;;
55290;SDS011;41155;39.768;2.712;2023-03-01T01:22:42;31.77;;;13.75;;
55290;SDS011;41155;39.768;2.712;2023-03-01T01:25:08;46.15;;;17.20;;
55290;SDS011;41155;39.768;2.712;2023-03-01T01:27:34;46.25;;;14.80;;
55290;SDS011;41155;39.768;2.712;2023-03-01T01:30:00;34.13;;;14.20;;
55290;SDS011;41155;39.768;2.712;2023-03-01T01:32:28;35.67;;;13.50;;
55290;SDS011;41155;39.768;2.712;2023-03-01T01:34:54;48.92;;;15.15;;
55290;SDS011;41155;39.768;2.712;2023-03-01T01:37:20;34.42;;;14.50;;
55290;SDS011;41155;39.768;2.712;2023-03-01T01:39:45;41.92;;;14.55;;
55290;SDS011;41155;39.768;2.712;2023-03-01T01:42:15;38.67;;;14.93;;
55290;SDS011;41155;39.768;2.712;2023-03-01T01:44:42;32.88;;;16.98;;
55290;SDS011;41155;39.768;2.712;2023-03-01T01:47:16;36.22;;;13.02;;
55290;SDS011;41155;39.768;2.712;2023-03-01T01:49:49;41.70;;;13.55;;
55290;SDS011;41155;39.768;2.712;2023-03-01T01:52:30;42.75;;;12.88;;
55290;SDS011;41155;39.768;2.712;2023-03-01T01:57:36;34.58;;;12.43;;
55290;SDS011;41155;39.768;2.712;2023-03-01T02:00:11;42.58;;;13.18;;
55290;SDS011;41155;39.768;2.712;2023-03-01T02:02:39;44.88;;;17.10;;
55290;SDS011;41155;39.768;2.712;2023-03-01T02:05:19;33.60;;;13.98;;
55290;SDS011;41155;39.768;2.712;2023-03-01T02:07:51;41.35;;;14.15;;
55290;SDS011;41155;39.768;2.712;2023-03-01T02:10:17;33.65;;;13.13;;
55290;SDS011;41155;39.768;2.712;2023-03-01T02:12:42;38.75;;;14.02;;
55290;SDS011;41155;39.768;2.712;2023-03-01T02:15:09;32.85;;;15.18;;
55290;SDS011;41155;39.768;2.712;2023-03-01T02:17:34;44.55;;;14.25;;
55290;SDS011;41155;39.768;2.712;2023-03-01T02:20:07;40.85;;;14.52;;
55290;SDS011;41155;39.768;2.712;2023-03-01T02:22:51;37.25;;;13.43;;
55290;SDS011;41155;39.768;2.712;2023-03-01T02:28:33;45.10;;;17.02;;
55290;SDS011;41155;39.768;2.712;2023-03-01T02:31:00;44.78;;;16.73;;
55290;SDS011;41155;39.768;2.712;2023-03-01T02:33:45;62.05;;;16.17;;
55290;SDS011;41155;39.768;2.712;2023-03-01T02:36:15;39.17;;;14.40;;
55290;SDS011;41155;39.768;2.712;2023-03-01T02:38:44;46.70;;;15.50;;
55290;SDS011;41155;39.768;2.712;2023-03-01T02:41:10;44.13;;;15.55;;
55290;SDS011;41155;39.768;2.712;2023-03-01T02:43:39;45.15;;;17.25;;
55290;SDS011;41155;39.768;2.712;2023-03-01T02:46:06;30.65;;;12.70;;
55290;SDS011;41155;39.768;2.712;2023-03-01T02:48:43;31.15;;;12.48;;
55290;SDS011;41155;39.768;2.712;2023-03-01T02:56:40;31.95;;;12.68;;
55290;SDS011;41155;39.768;2.712;2023-03-01T02:59:07;50.95;;;13.98;;
55290;SDS011;41155;39.768;2.712;2023-03-01T03:01:34;42.38;;;13.18;;
55290;SDS011;41155;39.768;2.712;2023-03-01T03:04:05;57.88;;;14.13;;
55290;SDS011;41155;39.768;2.712;2023-03-01T03:06:33;55.67;;;17.85;;
55290;SDS011;41155;39.768;2.712;2023-03-01T03:08:59;46.63;;;13.60;;
55290;SDS011;41155;39.768;2.712;2023-03-01T03:11:25;36.78;;;13.73;;
55290;SDS011;41155;39.768;2.712;2023-03-01T03:13:51;37.25;;;13.02;;
55290;SDS011;41155;39.768;2.712;2023-03-01T03:16:17;48.05;;;13.98;;
55290;SDS011;41155;39.768;2.712;2023-03-01T03:18:43;42.22;;;12.68;;
55290;SDS011;41155;39.768;2.712;2023-03-01T03:21:09;38.53;;;13.43;;
55290;SDS011;41155;39.768;2.712;2023-03-01T03:23:36;28.73;;;12.30;;
55290;SDS011;41155;39.768;2.712;2023-03-01T03:26:03;30.40;;;13.63;;
55290;SDS011;41155;39.768;2.712;2023-03-01T03:28:33;38.17;;;13.25;;
55290;SDS011;41155;39.768;2.712;2023-03-01T03:30:59;34.33;;;11.85;;
55290;SDS011;41155;39.768;2.712;2023-03-01T03:33:31;49.95;;;17.80;;
55290;SDS011;41155;39.768;2.712;2023-03-01T03:35:57;43.65;;;17.52;;
55290;SDS011;41155;39.768;2.712;2023-03-01T03:38:22;34.33;;;13.95;;
55290;SDS011;41155;39.768;2.712;2023-03-01T03:40:52;32.72;;;14.27;;
55290;SDS011;41155;39.768;2.712;2023-03-01T03:43:30;43.33;;;14.68;;
55290;SDS011;41155;39.768;2.712;2023-03-01T03:45:58;27.40;;;12.10;;
55290;SDS011;41155;39.768;2.712;2023-03-01T03:48:24;40.90;;;11.00;;
55290;SDS011;41155;39.768;2.712;2023-03-01T03:50:51;25.15;;;11.43;;
55290;SDS011;41155;39.768;2.712;2023-03-01T03:53:21;30.30;;;10.07;;
55290;SDS011;41155;39.768;2.712;2023-03-01T03:55:48;30.75;;;10.77;;
55290;SDS011;41155;39.768;2.712;2023-03-01T03:58:14;30.10;;;11.35;;
55290;SDS011;41155;39.768;2.712;2023-03-01T04:00:41;17.58;;;9.35;;
55290;SDS011;41155;39.768;2.712;2023-03-01T04:03:08;34.83;;;10.85;;
55290;SDS011;41155;39.768;2.712;2023-03-01T04:05:36;21.80;;;9.35;;
55290;SDS011;41155;39.768;2.712;2023-03-01T04:08:03;20.25;;;9.40;;
55290;SDS011;41155;39.768;2.712;2023-03-01T04:10:35;28.48;;;9.50;;
55290;SDS011;41155;39.768;2.712;2023-03-01T04:13:12;27.88;;;9.23;;
55290;SDS011;41155;39.768;2.712;2023-03-01T04:15:44;25.98;;;8.80;;
55290;SDS011;41155;39.768;2.712;2023-03-01T04:18:12;29.20;;;11.57;;
55290;SDS011;41155;39.768;2.712;2023-03-01T04:20:38;32.67;;;9.85;;
55290;SDS011;41155;39.768;2.712;2023-03-01T04:23:05;39.35;;;10.90;;
55290;SDS011;41155;39.768;2.712;2023-03-01T04:25:46;19.67;;;9.55;;
55290;SDS011;41155;39.768;2.712;2023-03-01T04:28:14;18.17;;;9.88;;
55290;SDS011;41155;39.768;2.712;2023-03-01T04:30:40;42.90;;;9.80;;
55290;SDS011;41155;39.768;2.712;2023-03-01T04:33:10;23.23;;;10.05;;
55290;SDS011;41155;39.768;2.712;2023-03-01T04:35:39;35.15;;;10.63;;
55290;SDS011;41155;39.768;2.712;2023-03-01T04:38:05;27.45;;;10.00;;
55290;SDS011;41155;39.768;2.712;2023-03-01T04:40:31;26.92;;;10.18;;
55290;SDS011;41155;39.768;2.712;2023-03-01T04:42:57;29.23;;;9.85;;
55290;SDS011;41155;39.768;2.712;2023-03-01T04:45:23;36.30;;;10.32;;
55290;SDS011;41155;39.768;2.712;2023-03-01T04:47:49;34.03;;;10.10;;
55290;SDS011;41155;39.768;2.712;2023-03-01T04:50:17;27.42;;;10.10;;
55290;SDS011;41155;39.768;2.712;2023-03-01T04:52:45;25.05;;;10.38;;
55290;SDS011;41155;39.768;2.712;2023-03-01T04:55:11;26.67;;;11.10;;
55290;SDS011;41155;39.768;2.712;2023-03-01T04:57:37;22.40;;;10.18;;
55290;SDS011;41155;39.768;2.712;2023-03-01T05:00:04;29.58;;;10.30;;
55290;SDS011;41155;39.768;2.712;2023-03-01T05:02:55;25.58;;;10.88;;
55290;SDS011;41155;39.768;2.712;2023-03-01T05:05:23;39.13;;;10.55;;
55290;SDS011;41155;39.768;2.712;2023-03-01T05:08:00;16.33;;;10.23;;
55290;SDS011;41155;39.768;2.712;2023-03-01T05:10:28;21.90;;;10.60;;
55290;SDS011;41155;39.768;2.712;2023-03-01T05:12:55;37.15;;;10.63;;
55290;SDS011;41155;39.768;2.712;2023-03-01T05:15:22;25.20;;;13.23;;
55290;SDS011;41155;39.768;2.712;2023-03-01T05:17:50;40.08;;;10.63;;
55290;SDS011;41155;39.768;2.712;2023-03-01T05:20:16;17.98;;;8.93;;
55290;SDS011;41155;39.768;2.712;2023-03-01T05:22:43;19.92;;;10.10;;
55290;SDS011;41155;39.768;2.712;2023-03-01T05:25:08;30.15;;;9.65;;
55290;SDS011;41155;39.768;2.712;2023-03-01T05:27:34;12.18;;;9.43;;
55290;SDS011;41155;39.768;2.712;2023-03-01T05:30:00;26.75;;;13.25;;
55290;SDS011;41155;39.768;2.712;2023-03-01T05:32:38;36.83;;;13.52;;
55290;SDS011;41155;39.768;2.712;2023-03-01T05:35:08;22.83;;;11.52;;
55290;SDS011;41155;39.768;2.712;2023-03-01T05:37:38;29.38;;;11.50;;
55290;SDS011;41155;39.768;2.712;2023-03-01T05:40:09;27.10;;;12.60;;
55290;SDS011;41155;39.768;2.712;2023-03-01T05:42:45;31.27;;;13.18;;
55290;SDS011;41155;39.768;2.712;2023-03-01T05:45:12;25.02;;;12.23;;
55290;SDS011;41155;39.768;2.712;2023-03-01T05:47:42;25.27;;;11.43;;
55290;SDS011;41155;39.768;2.712;2023-03-01T05:50:11;24.58;;;12.13;;
55290;SDS011;41155;39.768;2.712;2023-03-01T05:52:48;23.85;;;11.93;;
55290;SDS011;41155;39.768;2.712;2023-03-01T05:55:19;29.30;;;12.82;;
55290;SDS011;41155;39.768;2.712;2023-03-01T05:57:46;29.88;;;11.10;;
55290;SDS011;41155;39.768;2.712;2023-03-01T06:00:12;25.75;;;11.73;;
55290;SDS011;41155;39.768;2.712;2023-03-01T06:02:39;21.08;;;11.77;;
55290;SDS011;41155;39.768;2.712;2023-03-01T06:05:06;26.77;;;11.75;;
55290;SDS011;41155;39.768;2.712;2023-03-01T06:07:32;19.85;;;10.98;;
55290;SDS011;41155;39.768;2.712;2023-03-01T06:09:58;26.48;;;11.57;;
55290;SDS011;41155;39.768;2.712;2023-03-01T06:12:24;26.08;;;11.02;;
55290;SDS011;41155;39.768;2.712;2023-03-01T06:14:49;18.23;;;10.82;;
55290;SDS011;41155;39.768;2.712;2023-03-01T06:17:14;37.97;;;13.02;;
55290;SDS011;41155;39.768;2.712;2023-03-01T06:19:40;27.65;;;12.27;;
55290;SDS011;41155;39.768;2.712;2023-03-01T06:22:06;25.35;;;12.48;;
55290;SDS011;41155;39.768;2.712;2023-03-01T06:24:32;23.27;;;13.00;;
55290;SDS011;41155;39.768;2.712;2023-03-01T06:26:58;30.90;;;12.73;;
55290;SDS011;41155;39.768;2.712;2023-03-01T06:29:23;25.00;;;12.93;;
55290;SDS011;41155;39.768;2.712;2023-03-01T06:31:49;28.02;;;13.70;;
55290;SDS011;41155;39.768;2.712;2023-03-01T06:34:14;28.38;;;14.50;;
55290;SDS011;41155;39.768;2.712;2023-03-01T06:36:40;29.17;;;14.00;;
55290;SDS011;41155;39.768;2.712;2023-03-01T06:39:05;39.90;;;21.60;;
55290;SDS011;41155;39.768;2.712;2023-03-01T06:41:31;25.88;;;16.27;;
55290;SDS011;41155;39.768;2.712;2023-03-01T06:43:58;21.67;;;14.52;;
55290;SDS011;41155;39.768;2.712;2023-03-01T06:46:24;23.15;;;13.35;;
55290;SDS011;41155;39.768;2.712;2023-03-01T06:48:49;27.83;;;13.63;;
55290;SDS011;41155;39.768;2.712;2023-03-01T06:51:15;22.77;;;12.88;;
55290;SDS011;41155;39.768;2.712;2023-03-01T06:53:40;31.33;;;13.48;;
55290;SDS011;41155;39.768;2.712;2023-03-01T06:56:06;23.73;;;13.85;;
55290;SDS011;41155;39.768;2.712;2023-03-01T06:58:31;27.98;;;14.10;;
55290;SDS011;41155;39.768;2.712;2023-03-01T07:00:57;31.63;;;14.30;;
55290;SDS011;41155;39.768;2.712;2023-03-01T07:03:22;28.50;;;15.10;;
55290;SDS011;41155;39.768;2.712;2023-03-01T07:05:48;30.50;;;13.73;;
55290;SDS011;41155;39.768;2.712;2023-03-01T07:08:17;36.72;;;14.65;;
55290;SDS011;41155;39.768;2.712;2023-03-01T07:10:43;24.33;;;14.07;;
55290;SDS011;41155;39.768;2.712;2023-03-01T07:13:09;25.45;;;13.93;;
55290;SDS011;41155;39.768;2.712;2023-03-01T07:15:35;25.63;;;14.75;;
55290;SDS011;41155;39.768;2.712;2023-03-01T07:18:01;32.45;;;14.57;;
55290;SDS011;41155;39.768;2.712;2023-03-01T07:20:26;25.90;;;13.00;;
55290;SDS011;41155;39.768;2.712;2023-03-01T07:22:52;19.35;;;12.57;;
55290;SDS011;41155;39.768;2.712;2023-03-01T07:25:18;20.55;;;13.48;;
55290;SDS011;41155;39.768;2.712;2023-03-01T07:27:48;26.38;;;15.52;;
55290;SDS011;41155;39.768;2.712;2023-03-01T07:30:14;28.30;;;14.57;;
55290;SDS011;41155;39.768;2.712;2023-03-01T07:32:40;47.13;;;21.08;;
55290;SDS011;41155;39.768;2.712;2023-03-01T07:35:05;28.98;;;17.42;;
55290;SDS011;41155;39.768;2.712;2023-03-01T07:37:31;28.50;;;14.35;;
55290;SDS011;41155;39.768;2.712;2023-03-01T07:39:57;31.35;;;16.05;;
55290;SDS011;41155;39.768;2.712;2023-03-01T07:42:22;25.20;;;15.60;;
55290;SDS011;41155;39.768;2.712;2023-03-01T07:44:48;21.25;;;12.80;;
55290;SDS011;41155;39.768;2.712;2023-03-01T07:47:13;27.30;;;13.30;;
55290;SDS011;41155;39.768;2.712;2023-03-01T07:49:39;48.22;;;32.42;;
55290;SDS011;41155;39.768;2.712;2023-03-01T07:52:04;22.50;;;15.15;;
55290;SDS011;41155;39.768;2.712;2023-03-01T07:54:30;32.83;;;19.20;;
55290;SDS011;41155;39.768;2.712;2023-03-01T07:56:56;28.23;;;15.70;;
55290;SDS011;41155;39.768;2.712;2023-03-01T07:59:22;22.65;;;15.80;;
55290;SDS011;41155;39.768;2.712;2023-03-01T08:01:53;30.52;;;16.38;;
55290;SDS011;41155;39.768;2.712;2023-03-01T08:04:20;32.22;;;21.45;;
55290;SDS011;41155;39.768;2.712;2023-03-01T08:06:45;28.38;;;20.05;;
55290;SDS011;41155;39.768;2.712;2023-03-01T08:09:10;34.75;;;18.13;;
55290;SDS011;41155;39.768;2.712;2023-03-01T08:11:36;43.33;;;14.65;;
55290;SDS011;41155;39.768;2.712;2023-03-01T08:14:02;22.77;;;15.65;;
55290;SDS011;41155;39.768;2.712;2023-03-01T08:16:28;30.23;;;16.77;;
55290;SDS011;41155;39.768;2.712;2023-03-01T08:18:53;24.58;;;15.55;;
55290;SDS011;41155;39.768;2.712;2023-03-01T08:21:21;22.13;;;14.60;;
55290;SDS011;41155;39.768;2.712;2023-03-01T08:23:47;20.38;;;16.33;;
55290;SDS011;41155;39.768;2.712;2023-03-01T08:28:40;30.90;;;14.52;;
55290;SDS011;41155;39.768;2.712;2023-03-01T08:34:04;23.60;;;12.77;;
55290;SDS011;41155;39.768;2.712;2023-03-01T08:36:32;34.95;;;12.82;;
55290;SDS011;41155;39.768;2.712;2023-03-01T08:39:00;21.13;;;13.52;;
55290;SDS011;41155;39.768;2.712;2023-03-01T08:41:26;31.38;;;17.60;;
55290;SDS011;41155;39.768;2.712;2023-03-01T08:43:52;32.60;;;18.40;;
55290;SDS011;41155;39.768;2.712;2023-03-01T08:46:23;22.85;;;14.32;;
55290;SDS011;41155;39.768;2.712;2023-03-01T08:48:49;25.30;;;14.45;;
55290;SDS011;41155;39.768;2.712;2023-03-01T08:51:16;27.50;;;14.95;;
55290;SDS011;41155;39.768;2.712;2023-03-01T08:53:43;26.33;;;13.75;;
55290;SDS011;41155;39.768;2.712;2023-03-01T08:56:09;22.38;;;14.70;;
55290;SDS011;41155;39.768;2.712;2023-03-01T08:58:35;23.88;;;14.85;;
55290;SDS011;41155;39.768;2.712;2023-03-01T09:01:01;19.33;;;8.80;;
55290;SDS011;41155;39.768;2.712;2023-03-01T09:03:32;34.60;;;16.33;;
55290;SDS011;41155;39.768;2.712;2023-03-01T09:06:01;18.52;;;12.07;;
55290;SDS011;41155;39.768;2.712;2023-03-01T09:08:27;21.05;;;10.25;;
55290;SDS011;41155;39.768;2.712;2023-03-01T09:10:53;14.55;;;9.23;;
55290;SDS011;41155;39.768;2.712;2023-03-01T09:13:19;12.90;;;8.63;;
55290;SDS011;41155;39.768;2.712;2023-03-01T09:15:44;22.75;;;9.95;;
55290;SDS011;41155;39.768;2.712;2023-03-01T09:18:10;25.00;;;9.18;;
55290;SDS011;41155;39.768;2.712;2023-03-01T09:20:35;23.48;;;10.63;;
55290;SDS011;41155;39.768;2.712;2023-03-01T09:23:01;31.13;;;14.38;;
55290;SDS011;41155;39.768;2.712;2023-03-01T09:25:26;31.60;;;13.55;;
55290;SDS011;41155;39.768;2.712;2023-03-01T09:27:53;17.10;;;7.97;;
55290;SDS011;41155;39.768;2.712;2023-03-01T09:30:19;17.52;;;7.75;;
55290;SDS011;41155;39.768;2.712;2023-03-01T09:32:45;15.48;;;9.32;;
55290;SDS011;41155;39.768;2.712;2023-03-01T09:35:11;24.55;;;12.45;;
55290;SDS011;41155;39.768;2.712;2023-03-01T09:37:37;22.33;;;9.82;;
55290;SDS011;41155;39.768;2.712;2023-03-01T09:40:05;42.20;;;13.25;;
55290;SDS011;41155;39.768;2.712;2023-03-01T09:42:32;26.15;;;8.07;;
55290;SDS011;41155;39.768;2.712;2023-03-01T09:45:02;17.42;;;6.18;;
55290;SDS011;41155;39.768;2.712;2023-03-01T09:47:36;16.30;;;7.30;;
55290;SDS011;41155;39.768;2.712;2023-03-01T09:50:15;14.45;;;7.05;;
55290;SDS011;41155;39.768;2.712;2023-03-01T09:53:02;26.20;;;7.32;;
55290;SDS011;41155;39.768;2.712;2023-03-01T10:00:52;26.30;;;9.15;;
55290;SDS011;41155;39.768;2.712;2023-03-01T10:08:42;32.30;;;10.13;;
55290;SDS011;41155;39.768;2.712;2023-03-01T10:11:36;12.00;;;7.03;;
55290;SDS011;41155;39.768;2.712;2023-03-01T10:14:13;24.23;;;6.93;;
55290;SDS011;41155;39.768;2.712;2023-03-01T10:16:53;18.95;;;7.80;;
55290;SDS011;41155;39.768;2.712;2023-03-01T10:24:42;13.10;;;6.28;;
55290;SDS011;41155;39.768;2.712;2023-03-01T10:27:14;17.20;;;5.07;;
55290;SDS011;41155;39.768;2.712;2023-03-01T10:32:28;12.73;;;6.28;;
55290;SDS011;41155;39.768;2.712;2023-03-01T10:34:54;11.35;;;5.32;;
55290;SDS011;41155;39.768;2.712;2023-03-01T10:37:20;16.90;;;5.05;;
55290;SDS011;41155;39.768;2.712;2023-03-01T10:39:55;14.38;;;6.03;;
55290;SDS011;41155;39.768;2.712;2023-03-01T10:42:34;14.60;;;7.22;;
55290;SDS011;41155;39.768;2.712;2023-03-01T10:45:32;13.77;;;6.20;;
55290;SDS011;41155;39.768;2.712;2023-03-01T10:48:20;15.80;;;5.45;;
55290;SDS011;41155;39.768;2.712;2023-03-01T10:51:04;11.05;;;5.28;;
55290;SDS011;41155;39.768;2.712;2023-03-01T10:53:33;13.18;;;5.20;;
55290;SDS011;41155;39.768;2.712;2023-03-01T10:56:03;12.90;;;4.40;;
55290;SDS011;41155;39.768;2.712;2023-03-01T10:58:29;9.52;;;4.47;;
55290;SDS011;41155;39.768;2.712;2023-03-01T11:00:56;12.75;;;5.22;;
55290;SDS011;41155;39.768;2.712;2023-03-01T11:08:46;8.98;;;5.75;;
55290;SDS011;41155;39.768;2.712;2023-03-01T11:13:54;8.57;;;5.43;;
55290;SDS011;41155;39.768;2.712;2023-03-01T11:16:30;13.95;;;5.45;;
55290;SDS011;41155;39.768;2.712;2023-03-01T11:19:13;12.63;;;5.13;;
55290;SDS011;41155;39.768;2.712;2023-03-01T11:21:50;10.93;;;4.57;;
55290;SDS011;41155;39.768;2.712;2023-03-01T11:24:28;11.98;;;4.40;;
55290;SDS011;41155;39.768;2.712;2023-03-01T11:26:59;10.32;;;3.60;;
55290;SDS011;41155;39.768;2.712;2023-03-01T11:29:36;11.38;;;4.13;;
55290;SDS011;41155;39.768;2.712;2023-03-01T11:32:06;11.68;;;4.10;;
55290;SDS011;41155;39.768;2.712;2023-03-01T11:37:21;10.65;;;3.85;;
55290;SDS011;41155;39.768;2.712;2023-03-01T11:39:59;11.77;;;3.30;;
55290;SDS011;41155;39.768;2.712;2023-03-01T11:42:52;7.13;;;3.60;;
55290;SDS011;41155;39.768;2.712;2023-03-01T11:45:19;8.80;;;5.30;;
55290;SDS011;41155;39.768;2.712;2023-03-01T11:50:51;14.88;;;5.32;;
55290;SDS011;41155;39.768;2.712;2023-03-01T11:53:23;13.45;;;5.30;;
55290;SDS011;41155;39.768;2.712;2023-03-01T11:56:16;13.38;;;4.40;;
55290;SDS011;41155;39.768;2.712;2023-03-01T12:06:55;10.52;;;3.33;;
55290;SDS011;41155;39.768;2.712;2023-03-01T12:17:30;9.48;;;5.80;;
55290;SDS011;41155;39.768;2.712;2023-03-01T12:20:05;22.52;;;4.65;;
55290;SDS011;41155;39.768;2.712;2023-03-01T12:28:54;14.13;;;7.38;;
55290;SDS011;41155;39.768;2.712;2023-03-01T12:37:07;15.40;;;9.80;;
55290;SDS011;41155;39.768;2.712;2023-03-01T12:50:40;5.22;;;3.47;;
55290;SDS011;41155;39.768;2.712;2023-03-01T12:53:17;13.98;;;4.22;;
55290;SDS011;41155;39.768;2.712;2023-03-01T12:55:48;11.20;;;3.80;;
55290;SDS011;41155;39.768;2.712;2023-03-01T13:11:51;9.68;;;4.50;;
55290;SDS011;41155;39.768;2.712;2023-03-01T13:16:45;9.80;;;4.90;;
55290;SDS011;41155;39.768;2.712;2023-03-01T13:19:20;14.15;;;4.22;;
55290;SDS011;41155;39.768;2.712;2023-03-01T13:21:48;16.00;;;6.75;;
55290;SDS011;41155;39.768;2.712;2023-03-01T13:34:46;14.30;;;7.38;;
55290;SDS011;41155;39.768;2.712;2023-03-01T13:37:20;15.25;;;6.57;;
55290;SDS011;41155;39.768;2.712;2023-03-01T13:39:48;20.50;;;5.32;;
55290;SDS011;41155;39.768;2.712;2023-03-01T13:45:25;13.10;;;6.82;;
55290;SDS011;41155;39.768;2.712;2023-03-01T13:48:02;13.93;;;7.20;;
55290;SDS011;41155;39.768;2.712;2023-03-01T13:50:36;8.43;;;5.40;;
55290;SDS011;41155;39.768;2.712;2023-03-01T13:53:14;10.25;;;5.22;;
55290;SDS011;41155;39.768;2.712;2023-03-01T13:55:49;15.57;;;6.80;;
55290;SDS011;41155;39.768;2.712;2023-03-01T13:58:21;9.18;;;5.18;;
55290;SDS011;41155;39.768;2.712;2023-03-01T14:00:55;15.63;;;9.25;;
55290;SDS011;41155;39.768;2.712;2023-03-01T14:03:27;14.27;;;7.18;;
55290;SDS011;41155;39.768;2.712;2023-03-01T14:06:07;18.17;;;8.50;;
55290;SDS011;41155;39.768;2.712;2023-03-01T14:08:37;10.35;;;4.72;;
55290;SDS011;41155;39.768;2.712;2023-03-01T14:17:03;18.80;;;6.68;;
55290;SDS011;41155;39.768;2.712;2023-03-01T14:19:34;15.50;;;6.22;;
55290;SDS011;41155;39.768;2.712;2023-03-01T14:24:50;12.50;;;6.88;;
55290;SDS011;41155;39.768;2.712;2023-03-01T14:27:19;17.60;;;7.97;;
55290;SDS011;41155;39.768;2.712;2023-03-01T14:30:31;12.35;;;5.85;;
55290;SDS011;41155;39.768;2.712;2023-03-01T14:32:47;11.23;;;4.88;;
55290;SDS011;41155;39.768;2.712;2023-03-01T14:35:28;14.05;;;5.45;;
55290;SDS011;41155;39.768;2.712;2023-03-01T14:37:56;22.80;;;5.50;;
55290;SDS011;41155;39.768;2.712;2023-03-01T14:43:11;11.00;;;5.60;;
55290;SDS011;41155;39.768;2.712;2023-03-01T14:45:42;10.45;;;7.40;;
55290;SDS011;41155;39.768;2.712;2023-03-01T14:48:13;10.40;;;6.18;;
55290;SDS011;41155;39.768;2.712;2023-03-01T14:50:40;9.20;;;6.82;;
55290;SDS011;41155;39.768;2.712;2023-03-01T14:53:13;10.52;;;6.00;;
55290;SDS011;41155;39.768;2.712;2023-03-01T14:55:44;9.95;;;5.47;;
55290;SDS011;41155;39.768;2.712;2023-03-01T14:58:18;8.65;;;5.85;;
55290;SDS011;41155;39.768;2.712;2023-03-01T15:01:02;10.60;;;5.65;;
55290;SDS011;41155;39.768;2.712;2023-03-01T15:03:35;8.32;;;6.90;;
55290;SDS011;41155;39.768;2.712;2023-03-01T15:06:05;18.05;;;8.45;;
55290;SDS011;41155;39.768;2.712;2023-03-01T15:08:33;15.27;;;6.72;;
55290;SDS011;41155;39.768;2.712;2023-03-01T15:11:21;11.23;;;5.95;;
55290;SDS011;41155;39.768;2.712;2023-03-01T15:13:53;9.20;;;4.68;;
55290;SDS011;41155;39.768;2.712;2023-03-01T15:16:23;12.02;;;5.78;;
55290;SDS011;41155;39.768;2.712;2023-03-01T15:18:59;12.00;;;6.18;;
55290;SDS011;41155;39.768;2.712;2023-03-01T15:21:30;9.32;;;5.40;;
55290;SDS011;41155;39.768;2.712;2023-03-01T15:27:12;14.68;;;6.10;;
55290;SDS011;41155;39.768;2.712;2023-03-01T15:29:31;10.18;;;5.63;;
55290;SDS011;41155;39.768;2.712;2023-03-01T15:34:52;14.77;;;8.93;;
55290;SDS011;41155;39.768;2.712;2023-03-01T15:40:25;9.75;;;6.70;;
55290;SDS011;41155;39.768;2.712;2023-03-01T15:43:06;11.57;;;7.60;;
55290;SDS011;41155;39.768;2.712;2023-03-01T15:45:57;11.75;;;6.70;;
55290;SDS011;41155;39.768;2.712;2023-03-01T15:48:23;15.77;;;9.20;;
55290;SDS011;41155;39.768;2.712;2023-03-01T15:50:55;22.20;;;9.75;;
55290;SDS011;41155;39.768;2.712;2023-03-01T15:53:22;13.10;;;7.72;;
55290;SDS011;41155;39.768;2.712;2023-03-01T15:55:48;23.65;;;12.00;;
55290;SDS011;41155;39.768;2.712;2023-03-01T15:58:21;14.55;;;8.77;;
55290;SDS011;41155;39.768;2.712;2023-03-01T16:00:50;25.67;;;7.63;;
55290;SDS011;41155;39.768;2.712;2023-03-01T16:03:21;14.70;;;6.90;;
55290;SDS011;41155;39.768;2.712;2023-03-01T16:05:48;25.23;;;10.55;;
55290;SDS011;41155;39.768;2.712;2023-03-01T16:08:15;19.83;;;11.00;;
55290;SDS011;41155;39.768;2.712;2023-03-01T16:10:41;21.92;;;11.02;;
55290;SDS011;41155;39.768;2.712;2023-03-01T16:13:12;15.95;;;11.13;;
55290;SDS011;41155;39.768;2.712;2023-03-01T16:15:38;22.10;;;7.72;;
55290;SDS011;41155;39.768;2.712;2023-03-01T16:18:04;13.90;;;7.93;;
55290;SDS011;41155;39.768;2.712;2023-03-01T16:20:31;8.63;;;6.38;;
55290;SDS011;41155;39.768;2.712;2023-03-01T16:22:58;18.73;;;6.68;;
55290;SDS011;41155;39.768;2.712;2023-03-01T16:25:27;11.38;;;7.78;;
55290;SDS011;41155;39.768;2.712;2023-03-01T16:27:54;14.30;;;8.50;;
55290;SDS011;41155;39.768;2.712;2023-03-01T16:30:21;29.13;;;15.02;;
55290;SDS011;41155;39.768;2.712;2023-03-01T16:32:48;30.77;;;17.65;;
55290;SDS011;41155;39.768;2.712;2023-03-01T16:35:15;37.92;;;19.98;;
55290;SDS011;41155;39.768;2.712;2023-03-01T16:37:43;38.65;;;19.92;;
55290;SDS011;41155;39.768;2.712;2023-03-01T16:40:23;22.40;;;14.93;;
55290;SDS011;41155;39.768;2.712;2023-03-01T16:42:51;24.50;;;13.45;;
55290;SDS011;41155;39.768;2.712;2023-03-01T16:45:18;36.80;;;14.95;;
55290;SDS011;41155;39.768;2.712;2023-03-01T16:47:44;27.65;;;17.42;;
55290;SDS011;41155;39.768;2.712;2023-03-01T16:50:10;34.92;;;18.27;;
55290;SDS011;41155;39.768;2.712;2023-03-01T16:52:36;32.45;;;14.30;;
55290;SDS011;41155;39.768;2.712;2023-03-01T16:55:03;18.38;;;12.10;;
55290;SDS011;41155;39.768;2.712;2023-03-01T16:57:30;22.35;;;15.48;;